createdAt,value
2018-03-16T00:02:25.895Z,12.33
2018-03-16T00:04:53.465Z,12.97
2018-03-16T00:07:21.119Z,13.37
2018-03-16T00:09:48.777Z,12.60
2018-03-16T00:12:16.340Z,13.03
2018-03-16T00:14:43.924Z,11.83
2018-03-16T00:17:12.250Z,12.63
2018-03-16T00:19:39.824Z,13.03
2018-03-16T00:22:07.391Z,13.90
2018-03-16T00:24:34.972Z,13.70
2018-03-16T00:27:02.625Z,12.03
2018-03-16T00:29:30.214Z,12.27
2018-03-16T00:31:58.549Z,10.97
2018-03-16T00:34:26.114Z,11.63
2018-03-16T00:36:53.695Z,12.10
2018-03-16T00:39:22.040Z,12.70
2018-03-16T00:41:49.614Z,13.00
2018-03-16T00:44:17.167Z,12.17
2018-03-16T00:46:44.746Z,10.00
2018-03-16T00:49:12.311Z,11.63
2018-03-16T00:51:39.889Z,10.60
2018-03-16T00:54:08.217Z,10.37
2018-03-16T00:56:35.801Z,10.90
2018-03-16T00:59:03.476Z,12.60
2018-03-16T01:01:31.036Z,11.77
2018-03-16T01:03:58.627Z,12.50
2018-03-16T01:06:26.257Z,10.70
2018-03-16T01:08:53.839Z,11.77
2018-03-16T01:11:22.168Z,10.90
2018-03-16T01:13:49.749Z,15.50
2018-03-16T01:16:17.324Z,15.00
2018-03-16T01:18:44.974Z,13.33
2018-03-16T01:21:12.546Z,12.77
2018-03-16T01:23:40.127Z,15.90
2018-03-16T01:26:08.460Z,12.30
2018-03-16T01:28:36.036Z,14.20
2018-03-16T01:31:03.600Z,12.57
2018-03-16T01:33:31.202Z,12.70
2018-03-16T01:35:58.762Z,12.17
2018-03-16T01:38:26.378Z,14.20
2018-03-16T01:40:53.960Z,12.47
2018-03-16T01:43:22.332Z,16.37
2018-03-16T01:45:49.990Z,13.43
2018-03-16T01:48:17.547Z,14.03
2018-03-16T01:50:45.132Z,13.20
2018-03-16T01:53:17.412Z,13.80
2018-03-16T01:55:45.764Z,12.97
2018-03-16T01:58:14.830Z,13.57
2018-03-16T02:00:42.515Z,16.20
2018-03-16T02:03:11.579Z,13.80
2018-03-16T02:05:39.189Z,14.33
2018-03-16T02:08:06.742Z,14.73
2018-03-16T02:10:34.331Z,15.77
2018-03-16T02:13:02.683Z,14.13
2018-03-16T02:15:30.240Z,15.00
2018-03-16T02:17:57.815Z,15.73
2018-03-16T02:20:26.146Z,13.70
2018-03-16T02:22:53.719Z,14.70
2018-03-16T02:25:21.284Z,15.83
2018-03-16T02:27:48.865Z,14.07
2018-03-16T02:30:16.424Z,15.90
2018-03-16T02:32:44.083Z,14.70
2018-03-16T02:35:11.648Z,15.60
2018-03-16T02:37:39.238Z,15.47
2018-03-16T02:40:06.796Z,14.53
2018-03-16T02:42:35.281Z,14.70
2018-03-16T02:45:02.839Z,13.30
2018-03-16T02:47:31.188Z,13.50
2018-03-16T02:49:58.852Z,13.03
2018-03-16T02:52:27.220Z,13.97
2018-03-16T02:54:54.784Z,13.97
2018-03-16T02:57:22.345Z,16.27
2018-03-16T02:59:50.010Z,14.50
2018-03-16T03:02:18.361Z,15.30
2018-03-16T03:04:45.939Z,12.47
2018-03-16T03:07:13.521Z,14.03
2018-03-16T03:09:41.105Z,12.43
2018-03-16T03:12:09.436Z,14.43
2018-03-16T03:14:37.014Z,17.57
2018-03-16T03:17:04.571Z,14.30
2018-03-16T03:19:32.154Z,15.00
2018-03-16T03:22:00.487Z,13.63
2018-03-16T03:24:28.070Z,16.27
2018-03-16T03:26:55.693Z,14.70
2018-03-16T03:29:23.277Z,15.27
2018-03-16T03:31:50.839Z,13.93
2018-03-16T03:34:18.464Z,13.97
2018-03-16T03:36:46.904Z,13.40
2018-03-16T03:39:14.493Z,15.70
2018-03-16T03:41:42.820Z,14.50
2018-03-16T03:44:10.418Z,13.20
2018-03-16T03:46:38.752Z,13.63
2018-03-16T03:49:06.347Z,12.20
2018-03-16T03:51:35.430Z,14.47
2018-03-16T03:54:03.007Z,12.87
2018-03-16T03:56:30.664Z,13.53
2018-03-16T03:58:58.218Z,15.77
2018-03-16T04:01:25.893Z,14.37
2018-03-16T04:03:53.461Z,13.17
2018-03-16T04:06:21.822Z,11.70
2018-03-16T04:08:49.392Z,14.87
2018-03-16T04:11:17.058Z,12.53
2018-03-16T04:13:44.623Z,14.20
2018-03-16T04:16:12.211Z,14.70
2018-03-16T04:18:39.781Z,13.00
2018-03-16T04:21:07.396Z,13.57
2018-03-16T04:23:34.960Z,13.20
2018-03-16T04:26:02.552Z,12.70
2018-03-16T04:28:31.337Z,12.10
2018-03-16T04:30:59.684Z,12.33
2018-03-16T04:33:27.351Z,14.10
2018-03-16T04:35:54.920Z,11.67
2018-03-16T04:38:22.721Z,12.30
2018-03-16T04:40:50.341Z,14.37
2018-03-16T04:43:18.004Z,12.10
2018-03-16T04:45:45.660Z,12.50
2018-03-16T04:48:13.246Z,13.67
2018-03-16T04:50:41.586Z,11.83
2018-03-16T04:53:09.175Z,11.57
2018-03-16T04:55:36.828Z,14.77
2018-03-16T04:58:04.411Z,11.47
2018-03-16T05:00:32.776Z,13.40
2018-03-16T05:03:00.382Z,14.00
2018-03-16T05:05:27.948Z,15.20
2018-03-16T05:07:55.507Z,15.10
2018-03-16T05:10:23.117Z,12.80
2018-03-16T05:12:50.680Z,14.43
2018-03-16T05:15:18.266Z,15.00
2018-03-16T05:17:45.836Z,14.00
2018-03-16T05:20:13.456Z,14.73
2018-03-16T05:22:41.023Z,11.93
2018-03-16T05:25:08.610Z,12.03
2018-03-16T05:27:36.176Z,11.93
2018-03-16T05:30:03.806Z,12.87
2018-03-16T05:32:31.364Z,12.83
2018-03-16T05:34:58.944Z,17.13
2018-03-16T05:37:27.300Z,14.17
2018-03-16T05:39:54.886Z,14.77
2018-03-16T05:42:23.216Z,13.23
2018-03-16T05:44:50.821Z,14.97
2018-03-16T05:47:20.172Z,16.37
2018-03-16T05:49:47.727Z,14.60
2018-03-16T05:52:15.308Z,16.10
2018-03-16T05:54:42.888Z,14.63
2018-03-16T05:57:10.475Z,15.40
2018-03-16T05:59:38.808Z,12.83
2018-03-16T06:02:06.388Z,12.93
2018-03-16T06:04:33.952Z,13.97
2018-03-16T06:07:01.532Z,15.20
2018-03-16T06:09:29.891Z,17.03
2018-03-16T06:11:57.486Z,13.30
2018-03-16T06:14:25.113Z,14.13
2018-03-16T06:16:52.696Z,13.00
2018-03-16T06:19:21.016Z,14.97
2018-03-16T06:21:48.600Z,16.13
2018-03-16T06:24:16.160Z,15.23
2018-03-16T06:26:43.748Z,16.43
2018-03-16T06:29:12.080Z,15.50
2018-03-16T06:31:39.672Z,13.00
2018-03-16T06:34:07.335Z,12.03
2018-03-16T06:36:34.998Z,12.27
2018-03-16T06:39:02.659Z,14.27
2018-03-16T06:41:30.220Z,13.60
2018-03-16T06:43:57.812Z,14.47
2018-03-16T06:46:26.144Z,15.80
2018-03-16T06:48:53.830Z,13.27
2018-03-16T06:51:21.493Z,11.77
2018-03-16T06:53:49.154Z,14.10
2018-03-16T06:56:16.711Z,16.70
2018-03-16T06:58:44.292Z,13.27
2018-03-16T07:01:12.622Z,12.67
2018-03-16T07:03:40.214Z,13.00
2018-03-16T07:06:07.793Z,13.80
2018-03-16T07:08:36.163Z,12.77
2018-03-16T07:11:03.737Z,11.63
2018-03-16T07:13:32.087Z,13.97
2018-03-16T07:15:59.756Z,10.93
2018-03-16T07:18:27.335Z,13.87
2018-03-16T07:20:55.663Z,12.50
2018-03-16T07:23:23.261Z,11.90
2018-03-16T07:25:50.833Z,13.00
2018-03-16T07:28:19.203Z,11.53
2018-03-16T07:30:47.537Z,8.67
2018-03-16T07:33:15.109Z,10.20
2018-03-16T07:35:42.691Z,10.37
2018-03-16T07:38:10.248Z,12.20
2018-03-16T07:40:37.921Z,15.87
2018-03-16T07:43:05.476Z,20.17
2018-03-16T07:45:38.715Z,12.67
2018-03-16T07:48:06.339Z,18.27
2018-03-16T07:50:33.995Z,15.43
2018-03-16T07:53:01.561Z,14.50
2018-03-16T07:55:29.229Z,14.27
2018-03-16T07:57:56.804Z,12.80
2018-03-16T08:00:25.148Z,12.50
2018-03-16T08:02:52.717Z,13.60
2018-03-16T08:05:21.903Z,13.70
2018-03-16T08:07:49.469Z,14.00
2018-03-16T08:10:17.050Z,11.10
2018-03-16T08:12:45.428Z,12.93
2018-03-16T08:15:13.118Z,12.37
2018-03-16T08:17:41.454Z,12.20
2018-03-16T08:20:09.127Z,14.63
2018-03-16T08:22:36.713Z,11.80
2018-03-16T08:25:05.044Z,12.00
2018-03-16T08:27:32.623Z,11.27
2018-03-16T08:30:00.283Z,11.97
2018-03-16T08:32:27.868Z,11.70
2018-03-16T08:34:56.197Z,12.83
2018-03-16T08:37:23.889Z,12.43
2018-03-16T08:39:51.552Z,13.37
2018-03-16T08:42:19.134Z,12.47
2018-03-16T08:44:47.459Z,14.23
2018-03-16T08:47:15.044Z,15.03
2018-03-16T08:49:42.615Z,13.40
2018-03-16T08:52:10.285Z,12.73
2018-03-16T08:54:38.637Z,14.90
2018-03-16T08:57:06.201Z,17.70
2018-03-16T08:59:33.885Z,16.63
2018-03-16T09:02:01.459Z,18.53
2018-03-16T09:04:29.811Z,17.73
2018-03-16T09:06:57.380Z,17.30
2018-03-16T09:09:24.962Z,19.60
2018-03-16T09:11:53.302Z,21.40
2018-03-16T09:14:20.884Z,18.17
2018-03-16T09:16:48.545Z,16.90
2018-03-16T09:19:16.139Z,16.80
2018-03-16T09:21:43.708Z,15.20
2018-03-16T09:24:11.307Z,16.43
2018-03-16T09:26:38.893Z,16.17
2018-03-16T09:29:06.473Z,18.10
2018-03-16T09:31:34.795Z,16.83
2018-03-16T09:34:02.389Z,16.30
2018-03-16T09:36:29.959Z,18.23
2018-03-16T09:38:57.545Z,18.60
2018-03-16T09:41:25.120Z,22.30
2018-03-16T09:43:52.804Z,21.40
2018-03-16T09:46:20.387Z,22.20
2018-03-16T09:48:47.950Z,19.20
2018-03-16T09:51:15.617Z,26.00
2018-03-16T09:53:43.285Z,20.33
2018-03-16T09:56:10.877Z,16.50
2018-03-16T09:58:38.445Z,18.23
2018-03-16T10:01:06.033Z,20.23
2018-03-16T10:03:33.600Z,19.13
2018-03-16T10:06:01.189Z,17.90
2018-03-16T10:08:28.753Z,15.60
2018-03-16T10:10:57.085Z,16.37
2018-03-16T10:13:24.687Z,18.90
2018-03-16T10:15:52.246Z,17.97
2018-03-16T10:18:19.834Z,17.10
2018-03-16T10:20:48.168Z,20.13
2018-03-16T10:23:15.755Z,16.50
2018-03-16T10:25:43.317Z,21.13
2018-03-16T10:28:10.976Z,17.83
2018-03-16T10:30:38.546Z,20.43
2018-03-16T10:33:06.892Z,18.57
2018-03-16T10:35:34.456Z,18.03
2018-03-16T10:38:02.042Z,19.03
2018-03-16T10:40:30.375Z,17.33
2018-03-16T10:42:57.970Z,19.33
2018-03-16T10:45:25.540Z,17.87
2018-03-16T10:47:53.197Z,15.50
2018-03-16T10:50:20.860Z,15.07
2018-03-16T10:52:48.425Z,14.33
2018-03-16T10:55:16.012Z,12.87
2018-03-16T10:57:44.343Z,13.73
2018-03-16T11:00:11.935Z,12.80
2018-03-16T11:02:46.122Z,11.03
2018-03-16T11:05:28.328Z,13.30
2018-03-16T11:07:57.838Z,12.97
2018-03-16T11:10:25.417Z,11.60
2018-03-16T11:12:54.500Z,11.83
2018-03-16T11:15:22.171Z,11.70
2018-03-16T11:17:49.739Z,12.23
2018-03-16T11:20:17.392Z,11.27
2018-03-16T11:22:45.060Z,11.27
2018-03-16T11:25:12.659Z,9.37
2018-03-16T11:27:40.216Z,8.53
2018-03-16T11:30:07.793Z,10.20
2018-03-16T11:32:35.352Z,8.87
2018-03-16T11:35:02.936Z,7.73
2018-03-16T11:37:30.552Z,7.27
2018-03-16T11:39:58.184Z,8.77
2018-03-16T11:42:26.528Z,8.70
2018-03-16T11:44:54.088Z,7.70
2018-03-16T11:47:21.672Z,8.37
2018-03-16T11:49:49.248Z,8.70
2018-03-16T11:52:16.911Z,9.40
2018-03-16T11:54:44.552Z,9.07
2018-03-16T11:57:12.139Z,7.87
2018-03-16T11:59:39.745Z,7.33
2018-03-16T12:02:08.055Z,8.20
2018-03-16T12:04:35.618Z,7.67
2018-03-16T12:07:03.217Z,8.13
2018-03-16T12:09:31.555Z,8.80
2018-03-16T12:11:59.165Z,9.10
2018-03-16T12:14:27.492Z,9.50
2018-03-16T12:16:55.060Z,8.77
2018-03-16T12:19:22.651Z,8.67
2018-03-16T12:21:50.973Z,8.87
2018-03-16T12:24:18.581Z,9.30
2018-03-16T12:26:46.151Z,9.37
2018-03-16T12:29:14.518Z,9.63
2018-03-16T12:31:42.173Z,10.30
2018-03-16T12:34:09.835Z,10.50
2018-03-16T12:36:37.402Z,9.07
2018-03-16T12:39:05.980Z,10.00
2018-03-16T12:41:33.639Z,8.93
2018-03-16T12:44:01.223Z,8.70
2018-03-16T12:46:29.556Z,9.40
2018-03-16T12:48:57.137Z,9.27
2018-03-16T12:51:24.711Z,10.00
2018-03-16T12:53:53.057Z,11.53
2018-03-16T12:56:20.648Z,11.20
2018-03-16T12:58:48.204Z,10.27
2018-03-16T13:01:15.792Z,10.93
2018-03-16T13:03:44.129Z,11.20
2018-03-16T13:06:11.812Z,10.70
2018-03-16T13:08:39.376Z,9.67
2018-03-16T13:11:07.724Z,9.50
2018-03-16T13:13:35.303Z,8.90
2018-03-16T13:16:02.934Z,10.47
2018-03-16T13:18:30.592Z,9.73
2018-03-16T13:20:58.178Z,9.00
2018-03-16T13:23:25.760Z,9.40
2018-03-16T13:25:53.421Z,8.80
2018-03-16T13:28:23.514Z,10.50
2018-03-16T13:30:51.093Z,8.50
2018-03-16T13:33:18.656Z,8.23
2018-03-16T13:35:47.745Z,7.83
2018-03-16T13:38:15.326Z,6.63
2018-03-16T13:40:42.925Z,6.70
2018-03-16T13:43:10.476Z,6.60
2018-03-16T13:45:38.042Z,7.17
2018-03-16T13:48:05.665Z,6.10
2018-03-16T13:50:33.230Z,4.80
2018-03-16T13:53:00.885Z,5.30
2018-03-16T13:55:29.212Z,5.70
2018-03-16T13:57:56.888Z,5.33
2018-03-16T14:00:24.483Z,5.00
2018-03-16T14:02:52.063Z,6.20
2018-03-16T14:05:20.392Z,4.40
2018-03-16T14:07:47.964Z,4.90
2018-03-16T14:10:15.545Z,5.20
2018-03-16T14:12:43.117Z,5.40
2018-03-16T14:15:11.440Z,4.53
2018-03-16T14:17:39.017Z,4.17
2018-03-16T14:20:06.583Z,5.77
2018-03-16T14:22:34.173Z,4.90
2018-03-16T14:25:01.727Z,5.73
2018-03-16T14:27:29.321Z,6.43
2018-03-16T14:29:57.635Z,5.33
2018-03-16T14:32:25.228Z,6.03
2018-03-16T14:34:52.812Z,6.83
2018-03-16T14:37:21.133Z,7.70
2018-03-16T14:39:48.706Z,6.80
2018-03-16T14:42:16.322Z,8.90
2018-03-16T14:44:44.663Z,11.03
2018-03-16T14:47:12.233Z,8.67
2018-03-16T14:49:39.819Z,8.20
2018-03-16T14:52:07.396Z,7.90
2018-03-16T14:54:34.971Z,8.53
2018-03-16T14:57:02.535Z,7.17
2018-03-16T14:59:30.140Z,9.13
2018-03-16T15:01:57.690Z,9.67
2018-03-16T15:04:25.360Z,10.10
2018-03-16T15:06:53.023Z,11.23
2018-03-16T15:09:20.600Z,5.90
2018-03-16T15:11:48.925Z,7.40
2018-03-16T15:14:16.504Z,5.30
2018-03-16T15:16:44.067Z,5.00
2018-03-16T15:19:11.749Z,3.97
2018-03-16T15:21:39.429Z,4.37
2018-03-16T15:24:07.794Z,3.80
2018-03-16T15:26:35.420Z,2.00
2018-03-16T15:29:02.970Z,5.37
2018-03-16T15:31:30.673Z,3.70
2018-03-16T15:33:58.194Z,3.67
2018-03-16T15:36:25.754Z,3.17
2018-03-16T15:38:53.276Z,2.37
2018-03-16T15:41:21.594Z,2.20
2018-03-16T15:43:49.160Z,2.07
2018-03-16T15:46:16.803Z,2.00
2018-03-16T15:48:44.543Z,2.47
2018-03-16T15:51:12.935Z,1.90
2018-03-16T15:53:41.546Z,3.17
2018-03-16T15:56:09.397Z,2.23
2018-03-16T15:58:37.079Z,1.50
2018-03-16T16:01:04.964Z,1.20
2018-03-16T16:03:32.711Z,0.70
2018-03-16T16:06:00.347Z,1.10
2018-03-16T16:08:27.900Z,0.77
2018-03-16T16:10:56.243Z,0.70
2018-03-16T16:13:23.966Z,0.90
2018-03-16T16:15:51.487Z,0.60
2018-03-16T16:18:19.910Z,0.77
2018-03-16T16:20:47.439Z,1.00
2018-03-16T16:23:15.750Z,0.70
2018-03-16T16:25:43.282Z,2.13
2018-03-16T16:28:11.594Z,3.30
2018-03-16T16:30:39.121Z,3.63
2018-03-16T16:33:07.438Z,4.70
2018-03-16T16:35:34.977Z,4.30
2018-03-16T16:38:02.581Z,4.40
2018-03-16T16:40:30.099Z,4.60
2018-03-16T16:42:57.637Z,5.20
2018-03-16T16:45:28.197Z,4.70
2018-03-16T16:47:55.774Z,5.40
2018-03-16T16:50:25.471Z,5.30
2018-03-16T16:52:53.247Z,4.70
2018-03-16T16:55:20.764Z,5.90
2018-03-16T16:57:49.068Z,5.83
2018-03-16T17:00:16.645Z,6.23
2018-03-16T17:02:44.167Z,6.33
2018-03-16T17:05:12.585Z,7.07
2018-03-16T17:07:40.110Z,8.07
2018-03-16T17:10:08.415Z,6.93
2018-03-16T17:12:35.933Z,6.40
2018-03-16T17:15:04.270Z,7.00
2018-03-16T17:17:31.796Z,7.90
2018-03-16T17:19:59.339Z,6.70
2018-03-16T17:22:27.630Z,7.10
2018-03-16T17:24:55.171Z,6.40
2018-03-16T17:27:23.454Z,7.23
2018-03-16T17:29:51.779Z,7.67
2018-03-16T17:32:24.242Z,6.43
2018-03-16T17:34:46.995Z,6.50
2018-03-16T17:37:14.558Z,6.10
2018-03-16T17:39:42.114Z,5.80
2018-03-16T17:42:09.685Z,4.63
2018-03-16T17:44:37.203Z,5.07
2018-03-16T17:47:05.526Z,5.53
2018-03-16T17:49:33.039Z,5.07
2018-03-16T17:52:01.342Z,5.87
2018-03-16T17:54:28.865Z,4.57
2018-03-16T17:56:56.393Z,5.20
2018-03-16T17:59:23.910Z,4.63
2018-03-16T18:01:51.447Z,4.93
2018-03-16T18:04:19.762Z,4.13
2018-03-16T18:06:47.303Z,4.67
2018-03-16T18:09:14.823Z,5.03
2018-03-16T18:11:42.450Z,4.40
2018-03-16T18:14:10.019Z,4.30
2018-03-16T18:16:37.583Z,4.50
2018-03-16T18:19:05.131Z,4.90
2018-03-16T18:21:32.650Z,5.03
2018-03-16T18:24:00.974Z,4.87
2018-03-16T18:26:28.495Z,6.37
2018-03-16T18:28:56.795Z,5.90
2018-03-16T18:31:24.320Z,6.73
2018-03-16T18:33:52.627Z,5.93
2018-03-16T18:36:20.142Z,6.73
2018-03-16T18:38:47.678Z,5.97
2018-03-16T18:41:15.195Z,6.00
2018-03-16T18:43:42.736Z,6.22
2018-03-16T18:46:11.028Z,6.85
2018-03-16T18:48:39.335Z,6.63
2018-03-16T18:51:06.855Z,6.53
2018-03-16T18:53:35.174Z,5.65
2018-03-16T18:56:02.739Z,6.90
2018-03-16T18:58:30.284Z,5.93
2018-03-16T19:00:57.802Z,6.17
2018-03-16T19:03:25.426Z,6.57
2018-03-16T19:05:52.988Z,6.95
2018-03-16T19:08:20.511Z,7.00
2018-03-16T19:10:48.819Z,7.25
2018-03-16T19:13:16.386Z,6.65
2018-03-16T19:15:43.926Z,8.90
2018-03-16T19:18:11.459Z,8.48
2018-03-16T19:20:39.773Z,9.65
2018-03-16T19:23:07.303Z,9.23
2018-03-16T19:25:35.627Z,9.25
2018-03-16T19:28:03.190Z,10.63
2018-03-16T19:30:30.758Z,11.23
2018-03-16T19:32:58.281Z,10.05
2018-03-16T19:35:25.863Z,10.18
2018-03-16T19:37:53.401Z,11.12
2018-03-16T19:40:20.987Z,11.20
2018-03-16T19:42:48.509Z,11.55
2018-03-16T19:45:16.818Z,13.40
2018-03-16T19:47:44.338Z,12.20
2018-03-16T19:50:11.900Z,12.75
2018-03-16T19:52:40.189Z,12.02
2018-03-16T19:55:08.477Z,14.98
2018-03-16T19:57:36.029Z,15.60
2018-03-16T20:00:04.319Z,15.45
2018-03-16T20:02:31.874Z,13.18
2018-03-16T20:05:00.161Z,15.98
2018-03-16T20:07:27.708Z,13.40
2018-03-16T20:09:55.243Z,15.52
2018-03-16T20:12:22.863Z,14.87
2018-03-16T20:14:50.422Z,15.93
2018-03-16T20:17:17.970Z,14.80
2018-03-16T20:19:45.546Z,15.82
2018-03-16T20:22:13.089Z,15.73
2018-03-16T20:24:40.610Z,16.55
2018-03-16T20:27:09.090Z,17.73
2018-03-16T20:29:36.618Z,16.05
2018-03-16T20:32:04.137Z,16.90
2018-03-16T20:34:31.723Z,18.05
2018-03-16T20:36:59.291Z,16.58
2018-03-16T20:39:26.853Z,17.05
2018-03-16T20:41:54.408Z,18.20
2018-03-16T20:44:21.958Z,17.48
2018-03-16T20:46:49.493Z,17.55
2018-03-16T20:49:17.802Z,18.37
2018-03-16T20:51:45.325Z,17.90
2018-03-16T20:54:13.754Z,17.77
2018-03-16T20:56:41.273Z,18.02
2018-03-16T20:59:09.679Z,17.25
2018-03-16T21:01:37.349Z,18.08
2018-03-16T21:04:04.897Z,18.77
2018-03-16T21:06:32.426Z,18.42
2018-03-16T21:09:00.746Z,16.83
2018-03-16T21:11:28.265Z,19.10
2018-03-16T21:13:56.558Z,18.83
2018-03-16T21:16:24.118Z,18.27
2018-03-16T21:18:51.642Z,18.85
2018-03-16T21:21:19.267Z,19.40
2018-03-16T21:23:46.794Z,18.98
2018-03-16T21:26:15.102Z,17.83
2018-03-16T21:28:42.621Z,18.70
2018-03-16T21:31:10.980Z,19.08
2018-03-16T21:33:38.475Z,17.10
2018-03-16T21:36:06.062Z,17.48
2018-03-16T21:38:33.614Z,17.12
2018-03-16T21:41:01.154Z,18.77
2018-03-16T21:43:28.680Z,17.90
2018-03-16T21:45:57.003Z,17.33
2018-03-16T21:48:24.580Z,17.40
2018-03-16T21:50:52.126Z,18.92
2018-03-16T21:53:19.652Z,18.33
2018-03-16T21:55:47.962Z,19.42
2018-03-16T21:58:15.539Z,17.30
2018-03-16T22:00:43.105Z,18.08
2018-03-16T22:03:10.647Z,20.58
2018-03-16T22:05:38.174Z,18.92
2018-03-16T22:08:06.532Z,18.50
2018-03-16T22:10:34.030Z,17.75
2018-03-16T22:13:01.574Z,17.17
2018-03-16T22:15:29.891Z,18.60
2018-03-16T22:17:57.435Z,17.45
2018-03-16T22:20:24.959Z,16.90
2018-03-16T22:22:52.493Z,17.30
2018-03-16T22:25:20.012Z,19.73
2018-03-16T22:27:47.545Z,17.73
2018-03-16T22:30:15.866Z,19.00
2018-03-16T22:32:43.428Z,17.52
2018-03-16T22:35:10.942Z,17.87
2018-03-16T22:37:39.246Z,17.80
2018-03-16T22:40:06.831Z,18.12
2018-03-16T22:42:34.392Z,18.45
2018-03-16T22:45:01.915Z,18.20
2018-03-16T22:47:29.482Z,17.95
2018-03-16T22:49:57.067Z,18.80
2018-03-16T22:52:24.604Z,18.30
2018-03-16T22:54:52.127Z,16.30
2018-03-16T22:57:19.679Z,17.73
2018-03-16T22:59:48.744Z,18.02
2018-03-16T23:02:16.261Z,17.37
2018-03-16T23:04:44.566Z,17.35
2018-03-16T23:07:12.138Z,19.02
2018-03-16T23:09:39.698Z,18.10
2018-03-16T23:12:07.214Z,17.83
2018-03-16T23:14:35.543Z,19.12
2018-03-16T23:17:03.059Z,17.52
2018-03-16T23:19:31.361Z,17.15
2018-03-16T23:21:58.933Z,17.83
2018-03-16T23:24:26.500Z,18.87
2018-03-16T23:26:54.019Z,19.20
2018-03-16T23:29:22.327Z,18.75
2018-03-16T23:31:49.843Z,19.25
2018-03-16T23:34:18.147Z,18.83
2018-03-16T23:36:45.728Z,18.30
2018-03-16T23:39:13.290Z,18.83
2018-03-16T23:41:40.807Z,19.92
2018-03-16T23:44:09.124Z,18.25
2018-03-16T23:46:36.642Z,20.20
2018-03-16T23:49:04.252Z,18.95
2018-03-16T23:51:31.816Z,19.30
2018-03-16T23:53:59.333Z,18.55
2018-03-16T23:56:27.634Z,18.08
2018-03-16T23:58:55.156Z,20.48
